Time;durP1;ratioP1;P1;durP2;ratioP2;P2;SDS_P1;SDS_P2;PMS_P1;PMS_P2;Temp;Humidity;BMP_temperature;BMP_pressure;BME280_temperature;BME280_humidity;BME280_pressure;Samples;Min_cycle;Max_cycle;Signal;HPM_P1;HPM_P2
2022/04/29 00:00:47;;;;;;;1.60;1.50;;;;;;;;;;5005050;28;20219;-62
2022/04/29 00:03:15;;;;;;;2.47;1.30;;;;;;;;;;5007564;28;20196;-62
2022/04/29 00:05:43;;;;;;;3.20;1.67;;;;;;;;;;5013332;28;20210;-62
2022/04/29 00:08:11;;;;;;;2.87;1.50;;;;;;;;;;5009670;28;20629;-66
2022/04/29 00:10:39;;;;;;;2.13;1.43;;;;;;;;;;5026819;28;20265;-62
2022/04/29 00:13:07;;;;;;;2.77;1.43;;;;;;;;;;5010086;28;20533;-62
2022/04/29 00:15:34;;;;;;;1.60;1.33;;;;;;;;;;5019557;28;20200;-62
2022/04/29 00:18:01;;;;;;;2.73;1.60;;;;;;;;;;5003493;28;20219;-62
2022/04/29 00:20:28;;;;;;;2.13;1.20;;;;;;;;;;5013701;28;20219;-62
2022/04/29 00:22:55;;;;;;;2.20;1.50;;;;;;;;;;5024158;28;20257;-62
2022/04/29 00:25:23;;;;;;;2.53;1.40;;;;;;;;;;5013403;28;20198;-62
2022/04/29 00:27:50;;;;;;;1.90;1.23;;;;;;;;;;5010087;28;20207;-62
2022/04/29 00:30:17;;;;;;;1.70;1.10;;;;;;;;;;5011655;28;20209;-62
2022/04/29 00:32:44;;;;;;;2.27;1.40;;;;;;;;;;5027532;28;20260;-62
2022/04/29 00:35:11;;;;;;;1.63;1.10;;;;;;;;;;5026672;28;20186;-61
2022/04/29 00:37:45;;;;;;;2.30;1.50;;;;;;;;;;5008135;28;20210;-62
2022/04/29 00:40:13;;;;;;;2.57;1.50;;;;;;;;;;5007240;28;20233;-62
2022/04/29 00:42:41;;;;;;;1.73;1.23;;;;;;;;;;5026899;28;20203;-62
2022/04/29 00:45:08;;;;;;;2.30;1.40;;;;;;;;;;5026652;28;20252;-62
2022/04/29 00:47:36;;;;;;;2.20;1.20;;;;;;;;;;5024692;28;20633;-62
2022/04/29 00:50:03;;;;;;;1.80;1.10;;;;;;;;;;5008842;28;20214;-62
2022/04/29 00:52:31;;;;;;;2.00;1.47;;;;;;;;;;5006809;28;20231;-62
2022/04/29 00:55:02;;;;;;;2.57;1.43;;;;;;;;;;5007419;28;20624;-62
2022/04/29 00:57:38;;;;;;;3.30;1.10;;;;;;;;;;4985271;28;20297;-61
2022/04/29 01:00:19;;;;;;;1.80;1.50;;;;;;;;;;4975231;28;20227;-62
2022/04/29 01:02:51;;;;;;;2.63;1.30;;;;;;;;;;5007258;28;20203;-62
2022/04/29 01:05:26;;;;;;;2.87;1.40;;;;;;;;;;5006609;28;20242;-62
2022/04/29 01:07:55;;;;;;;2.87;1.60;;;;;;;;;;5026537;28;20198;-62
2022/04/29 01:10:26;;;;;;;2.23;1.53;;;;;;;;;;5026204;28;20651;-62
2022/04/29 01:13:02;;;;;;;2.60;1.57;;;;;;;;;;5026838;28;20187;-62
2022/04/29 01:15:35;;;;;;;2.23;1.33;;;;;;;;;;5018154;28;20736;-62
2022/04/29 01:18:11;;;;;;;2.63;1.30;;;;;;;;;;5026704;28;20214;-62
2022/04/29 01:20:43;;;;;;;2.63;1.30;;;;;;;;;;5014873;28;20676;-62
2022/04/29 01:23:16;;;;;;;1.63;1.40;;;;;;;;;;5021715;28;20638;-62
2022/04/29 01:25:48;;;;;;;2.23;1.30;;;;;;;;;;5010093;28;20195;-62
2022/04/29 01:28:17;;;;;;;3.23;1.10;;;;;;;;;;5027076;28;20261;-62
2022/04/29 01:30:50;;;;;;;1.47;1.37;;;;;;;;;;5029746;28;20257;-62
2022/04/29 01:33:19;;;;;;;1.93;1.57;;;;;;;;;;5012550;28;20218;-61
2022/04/29 01:35:51;;;;;;;1.70;1.30;;;;;;;;;;5008636;28;20202;-61
2022/04/29 01:38:24;;;;;;;1.73;1.30;;;;;;;;;;5010678;28;20210;-61
2022/04/29 01:40:54;;;;;;;2.00;1.23;;;;;;;;;;5010649;28;20262;-62
2022/04/29 01:43:24;;;;;;;1.47;1.00;;;;;;;;;;5013869;28;20200;-61
2022/04/29 01:45:54;;;;;;;2.23;1.03;;;;;;;;;;4994908;28;20684;-61
2022/04/29 01:48:21;;;;;;;2.33;1.20;;;;;;;;;;5014534;28;20204;-61
2022/04/29 01:50:49;;;;;;;3.00;1.10;;;;;;;;;;5011344;28;20208;-61
2022/04/29 01:53:16;;;;;;;2.43;1.10;;;;;;;;;;5027261;28;20281;-61
2022/04/29 01:55:43;;;;;;;1.57;1.30;;;;;;;;;;5016977;28;20196;-61
2022/04/29 01:58:10;;;;;;;1.80;1.30;;;;;;;;;;5029493;28;20196;-61
2022/04/29 02:00:37;;;;;;;1.37;0.97;;;;;;;;;;5018808;28;20213;-61
2022/04/29 02:03:05;;;;;;;1.60;1.30;;;;;;;;;;5009267;28;20258;-61
2022/04/29 02:05:32;;;;;;;1.30;1.10;;;;;;;;;;4971512;28;20612;-61
2022/04/29 02:08:00;;;;;;;1.57;1.20;;;;;;;;;;5027274;28;20253;-61
2022/04/29 02:10:27;;;;;;;1.53;1.17;;;;;;;;;;5019475;28;20307;-61
2022/04/29 02:12:54;;;;;;;1.07;0.90;;;;;;;;;;5026778;28;20194;-61
2022/04/29 02:15:22;;;;;;;2.33;1.17;;;;;;;;;;5024002;28;20188;-61
2022/04/29 02:17:49;;;;;;;2.70;1.47;;;;;;;;;;5019691;28;20207;-61
2022/04/29 02:20:16;;;;;;;1.40;1.30;;;;;;;;;;5008654;28;20235;-61
2022/04/29 02:22:43;;;;;;;1.77;1.00;;;;;;;;;;5024090;28;20184;-61
2022/04/29 02:25:12;;;;;;;2.20;1.10;;;;;;;;;;5029333;28;20187;-61
2022/04/29 02:27:39;;;;;;;2.83;1.07;;;;;;;;;;5023423;28;20203;-61
2022/04/29 02:30:07;;;;;;;2.67;1.30;;;;;;;;;;5018309;28;20522;-61
2022/04/29 02:32:34;;;;;;;1.80;1.30;;;;;;;;;;5021160;28;20222;-61
2022/04/29 02:35:01;;;;;;;2.90;1.30;;;;;;;;;;5027641;28;20207;-61
2022/04/29 02:37:28;;;;;;;2.00;1.37;;;;;;;;;;5017471;28;20256;-61
2022/04/29 02:39:56;;;;;;;1.77;1.33;;;;;;;;;;5026172;28;20305;-62
2022/04/29 02:42:23;;;;;;;1.67;1.20;;;;;;;;;;5028420;28;20797;-61
2022/04/29 02:44:50;;;;;;;1.10;1.00;;;;;;;;;;4994311;28;20270;-61
2022/04/29 02:47:17;;;;;;;1.60;1.20;;;;;;;;;;5017655;28;20282;-61
2022/04/29 02:49:45;;;;;;;2.47;1.10;;;;;;;;;;5026036;28;20252;-61
2022/04/29 02:52:13;;;;;;;1.23;1.13;;;;;;;;;;5026314;28;20257;-61
2022/04/29 02:54:41;;;;;;;2.30;1.10;;;;;;;;;;5028879;28;20195;-61
2022/04/29 02:57:08;;;;;;;1.37;1.20;;;;;;;;;;5026354;28;20238;-61
2022/04/29 02:59:35;;;;;;;1.43;1.00;;;;;;;;;;5005815;28;20208;-61
2022/04/29 03:02:03;;;;;;;1.73;1.30;;;;;;;;;;5014017;28;20191;-61
2022/04/29 03:04:31;;;;;;;2.13;1.47;;;;;;;;;;5026044;28;20214;-61
2022/04/29 03:06:58;;;;;;;2.40;1.30;;;;;;;;;;5027190;28;20245;-61
2022/04/29 03:09:25;;;;;;;1.37;1.20;;;;;;;;;;5024258;28;20196;-61
2022/04/29 03:11:52;;;;;;;1.73;1.10;;;;;;;;;;5006149;28;20705;-61
2022/04/29 03:14:19;;;;;;;2.80;1.57;;;;;;;;;;5008352;28;20188;-61
2022/04/29 03:16:50;;;;;;;1.33;1.23;;;;;;;;;;5004868;28;20227;-61
2022/04/29 03:19:17;;;;;;;1.90;1.30;;;;;;;;;;5027620;28;20245;-61
2022/04/29 03:21:44;;;;;;;1.90;1.30;;;;;;;;;;5024984;28;20234;-61
2022/04/29 03:24:12;;;;;;;2.93;1.07;;;;;;;;;;5028182;28;20203;-61
2022/04/29 03:26:40;;;;;;;2.60;1.40;;;;;;;;;;4998125;28;20680;-61
2022/04/29 03:29:07;;;;;;;2.47;1.37;;;;;;;;;;4984865;28;20208;-61
2022/04/29 03:31:34;;;;;;;2.00;1.27;;;;;;;;;;5000061;28;20208;-61
2022/04/29 03:34:02;;;;;;;1.50;1.23;;;;;;;;;;5026724;28;20194;-61
2022/04/29 03:36:29;;;;;;;2.27;1.40;;;;;;;;;;5028085;28;20191;-61
2022/04/29 03:38:56;;;;;;;2.53;1.10;;;;;;;;;;5027059;28;20202;-61
2022/04/29 03:41:24;;;;;;;1.47;1.23;;;;;;;;;;5006274;28;20579;-61
2022/04/29 03:43:56;;;;;;;2.03;1.30;;;;;;;;;;5024694;28;20194;-61
2022/04/29 03:46:24;;;;;;;2.03;1.30;;;;;;;;;;5010080;28;20192;-61
2022/04/29 03:51:37;;;;;;;2.83;1.30;;;;;;;;;;5022692;28;20172;-61
2022/04/29 03:54:04;;;;;;;1.43;1.13;;;;;;;;;;5027665;28;20203;-61
2022/04/29 03:56:31;;;;;;;4.07;1.40;;;;;;;;;;5027016;28;20234;-61
2022/04/29 03:58:58;;;;;;;2.17;1.30;;;;;;;;;;5026979;28;20260;-61
2022/04/29 04:01:27;;;;;;;1.80;1.20;;;;;;;;;;5023696;28;20269;-60
2022/04/29 04:04:03;;;;;;;1.57;1.40;;;;;;;;;;5003593;28;20223;-61
2022/04/29 04:06:50;;;;;;;2.90;1.13;;;;;;;;;;5011744;28;20184;-61
2022/04/29 04:09:24;;;;;;;1.77;1.10;;;;;;;;;;5010569;28;20269;-61
2022/04/29 04:11:53;;;;;;;1.90;1.20;;;;;;;;;;5009709;28;20223;-61
2022/04/29 04:14:22;;;;;;;1.83;1.33;;;;;;;;;;5025449;28;20191;-61
2022/04/29 04:16:52;;;;;;;2.30;1.10;;;;;;;;;;5017437;28;20203;-61
2022/04/29 04:19:22;;;;;;;2.30;1.40;;;;;;;;;;5021731;28;20293;-61
2022/04/29 04:21:51;;;;;;;2.43;1.13;;;;;;;;;;5023564;28;20676;-61
2022/04/29 04:24:19;;;;;;;2.07;1.23;;;;;;;;;;5024364;28;20203;-62
2022/04/29 04:26:47;;;;;;;1.57;1.27;;;;;;;;;;5018758;28;20196;-62
2022/04/29 04:29:14;;;;;;;1.80;1.40;;;;;;;;;;5022503;28;20353;-62
2022/04/29 04:31:41;;;;;;;2.33;1.40;;;;;;;;;;5022311;28;20273;-61
2022/04/29 04:36:54;;;;;;;1.93;1.10;;;;;;;;;;5014432;28;20203;-61
2022/04/29 04:39:21;;;;;;;2.70;1.83;;;;;;;;;;5022330;28;20203;-61
2022/04/29 04:41:49;;;;;;;2.33;1.83;;;;;;;;;;5021531;28;20305;-60
2022/04/29 04:44:16;;;;;;;2.30;1.50;;;;;;;;;;5006473;28;20198;-60
2022/04/29 04:46:43;;;;;;;2.30;1.33;;;;;;;;;;5007081;28;20199;-62
2022/04/29 04:49:11;;;;;;;2.17;1.30;;;;;;;;;;5019307;28;20409;-62
2022/04/29 04:51:38;;;;;;;1.30;1.17;;;;;;;;;;5024566;28;20203;-61
2022/04/29 04:54:06;;;;;;;2.23;1.30;;;;;;;;;;5024006;28;20225;-61
2022/04/29 04:56:33;;;;;;;1.67;1.30;;;;;;;;;;5026846;28;20231;-61
2022/04/29 04:59:00;;;;;;;2.00;1.30;;;;;;;;;;5028455;28;20655;-61
2022/04/29 05:01:27;;;;;;;1.17;1.03;;;;;;;;;;5029146;28;20837;-61
2022/04/29 05:03:58;;;;;;;1.83;1.10;;;;;;;;;;5029610;28;20531;-61
2022/04/29 05:06:27;;;;;;;1.90;1.30;;;;;;;;;;5008422;28;20222;-61
2022/04/29 05:08:58;;;;;;;1.10;1.00;;;;;;;;;;5019641;28;20636;-61
2022/04/29 05:11:27;;;;;;;1.77;1.27;;;;;;;;;;5009009;28;20207;-60
2022/04/29 05:14:22;;;;;;;1.20;1.10;;;;;;;;;;5020024;28;20195;-60
2022/04/29 05:16:53;;;;;;;1.80;1.20;;;;;;;;;;5009804;28;20200;-61
2022/04/29 05:19:20;;;;;;;3.73;1.20;;;;;;;;;;5004650;28;20666;-61
2022/04/29 05:21:48;;;;;;;1.73;1.33;;;;;;;;;;5027322;28;20215;-61
2022/04/29 05:24:15;;;;;;;1.30;1.10;;;;;;;;;;5026931;28;20820;-60
2022/04/29 05:26:42;;;;;;;1.37;1.10;;;;;;;;;;5030576;28;20245;-61
2022/04/29 05:29:09;;;;;;;1.13;1.00;;;;;;;;;;5026798;28;20577;-62
2022/04/29 05:31:36;;;;;;;1.73;1.40;;;;;;;;;;5004399;28;20216;-62
2022/04/29 05:34:04;;;;;;;2.07;1.20;;;;;;;;;;5009704;28;20584;-62
2022/04/29 05:36:31;;;;;;;1.37;1.27;;;;;;;;;;5010191;28;20688;-67
2022/04/29 05:44:33;;;;;;;2.27;1.63;;;;;;;;;;5008838;28;20197;-61
2022/04/29 05:47:00;;;;;;;1.47;1.23;;;;;;;;;;4989595;28;20275;-61
2022/04/29 05:49:29;;;;;;;2.10;1.43;;;;;;;;;;5005965;28;20202;-61
2022/04/29 05:52:03;;;;;;;2.43;1.53;;;;;;;;;;5005950;28;20214;-61
2022/04/29 05:54:31;;;;;;;1.50;1.37;;;;;;;;;;5009798;28;20214;-61
2022/04/29 05:57:02;;;;;;;2.43;1.57;;;;;;;;;;5007408;28;20721;-63
2022/04/29 05:59:29;;;;;;;4.70;1.40;;;;;;;;;;5007200;28;20822;-61
2022/04/29 06:01:57;;;;;;;2.73;1.53;;;;;;;;;;5006328;28;20660;-62
2022/04/29 06:04:24;;;;;;;2.43;1.73;;;;;;;;;;5006994;28;20203;-62
2022/04/29 06:06:52;;;;;;;2.57;1.60;;;;;;;;;;5008037;28;20355;-61
2022/04/29 06:09:19;;;;;;;2.23;1.50;;;;;;;;;;5013160;28;20191;-61
2022/04/29 06:11:46;;;;;;;2.63;1.63;;;;;;;;;;4989173;28;20219;-61
2022/04/29 06:14:14;;;;;;;2.57;1.50;;;;;;;;;;5014619;28;20218;-62
2022/04/29 06:16:41;;;;;;;3.30;1.60;;;;;;;;;;5013277;28;20203;-62
2022/04/29 06:19:08;;;;;;;2.37;1.50;;;;;;;;;;4992678;28;20218;-63
2022/04/29 06:21:40;;;;;;;1.90;1.60;;;;;;;;;;5026389;28;20219;-62
2022/04/29 06:24:08;;;;;;;1.90;1.63;;;;;;;;;;5029160;28;20191;-63
2022/04/29 06:26:35;;;;;;;1.73;1.50;;;;;;;;;;5029009;28;20203;-62
2022/04/29 06:29:03;;;;;;;2.90;1.70;;;;;;;;;;5002690;28;20797;-63
2022/04/29 06:31:30;;;;;;;2.53;1.57;;;;;;;;;;5018135;28;20195;-62
2022/04/29 06:33:57;;;;;;;2.50;1.50;;;;;;;;;;4993131;28;20200;-62
2022/04/29 06:36:25;;;;;;;2.23;1.47;;;;;;;;;;5028857;28;20637;-63
2022/04/29 06:38:56;;;;;;;2.93;1.47;;;;;;;;;;5028392;28;20631;-62
2022/04/29 06:41:25;;;;;;;2.40;1.60;;;;;;;;;;5028758;28;20215;-63
2022/04/29 06:44:01;;;;;;;2.60;1.70;;;;;;;;;;5012078;28;20179;-63
2022/04/29 06:46:33;;;;;;;2.63;1.83;;;;;;;;;;5014744;28;20230;-63
2022/04/29 06:49:03;;;;;;;2.20;1.40;;;;;;;;;;5008168;28;20621;-62
2022/04/29 06:51:33;;;;;;;3.10;1.53;;;;;;;;;;5025560;28;20191;-62
2022/04/29 06:54:04;;;;;;;1.57;1.47;;;;;;;;;;5017752;28;20293;-62
2022/04/29 06:56:32;;;;;;;4.23;1.60;;;;;;;;;;5025598;28;20223;-62
2022/04/29 06:59:03;;;;;;;3.93;1.87;;;;;;;;;;5007454;28;20214;-63
2022/04/29 07:01:34;;;;;;;2.57;1.77;;;;;;;;;;4997148;28;20257;-62
2022/04/29 07:04:04;;;;;;;2.53;2.03;;;;;;;;;;4990845;28;20191;-63
2022/04/29 07:06:37;;;;;;;2.47;1.70;;;;;;;;;;4989476;28;20238;-62
2022/04/29 07:09:09;;;;;;;2.63;1.80;;;;;;;;;;5008066;28;20240;-62
2022/04/29 07:11:40;;;;;;;2.90;2.00;;;;;;;;;;4970700;28;20234;-62
2022/04/29 07:14:09;;;;;;;2.07;1.87;;;;;;;;;;4989904;28;20214;-62
2022/04/29 07:16:56;;;;;;;3.73;2.10;;;;;;;;;;5002393;28;20192;-62
2022/04/29 07:19:27;;;;;;;4.73;2.33;;;;;;;;;;4987613;28;20231;-62
2022/04/29 07:22:21;;;;;;;2.03;1.60;;;;;;;;;;5027358;28;20204;-62
2022/04/29 07:24:51;;;;;;;3.40;1.77;;;;;;;;;;5025688;28;20218;-62
2022/04/29 07:27:24;;;;;;;3.20;2.10;;;;;;;;;;5028096;28;20211;-62
2022/04/29 07:29:56;;;;;;;2.27;1.80;;;;;;;;;;5022585;28;20241;-62
2022/04/29 07:32:25;;;;;;;4.27;2.10;;;;;;;;;;5028097;28;20735;-62
2022/04/29 07:43:28;;;;;;;3.70;2.10;;;;;;;;;;5008174;28;20643;-61
2022/04/29 07:45:58;;;;;;;2.60;2.07;;;;;;;;;;5026594;28;20633;-62
2022/04/29 07:48:31;;;;;;;2.67;1.97;;;;;;;;;;5027950;28;20205;-62
2022/04/29 07:51:00;;;;;;;2.97;2.10;;;;;;;;;;5027119;28;20198;-61
2022/04/29 07:53:29;;;;;;;2.43;1.80;;;;;;;;;;4998710;28;20196;-62
2022/04/29 07:56:01;;;;;;;2.40;1.70;;;;;;;;;;5001270;28;20206;-63
2022/04/29 07:58:34;;;;;;;2.60;1.70;;;;;;;;;;5008181;28;20984;-63
2022/04/29 08:01:09;;;;;;;3.20;1.60;;;;;;;;;;4996588;28;20212;-62
2022/04/29 08:03:37;;;;;;;3.50;2.07;;;;;;;;;;4985272;28;20208;-61
2022/04/29 08:06:07;;;;;;;2.20;2.00;;;;;;;;;;4985209;28;20654;-62
2022/04/29 08:08:35;;;;;;;3.13;2.07;;;;;;;;;;4987843;28;20203;-63
2022/04/29 08:11:03;;;;;;;4.73;2.10;;;;;;;;;;5003945;28;20253;-63
2022/04/29 08:13:36;;;;;;;3.17;2.10;;;;;;;;;;5004397;28;20222;-62
2022/04/29 08:16:28;;;;;;;2.63;1.90;;;;;;;;;;5010496;28;20200;-62
2022/04/29 08:18:59;;;;;;;2.00;1.70;;;;;;;;;;5004788;28;20238;-63
2022/04/29 08:21:30;;;;;;;2.30;2.03;;;;;;;;;;5013012;28;20231;-61
2022/04/29 08:24:02;;;;;;;3.50;2.00;;;;;;;;;;5006763;28;20180;-62
2022/04/29 08:26:32;;;;;;;2.97;2.07;;;;;;;;;;4994456;28;20239;-62
2022/04/29 08:29:05;;;;;;;3.03;1.93;;;;;;;;;;4986839;28;20189;-62
2022/04/29 08:31:36;;;;;;;3.47;1.97;;;;;;;;;;4982569;28;20224;-61
2022/04/29 08:34:09;;;;;;;2.57;1.90;;;;;;;;;;4990120;28;20215;-61
2022/04/29 08:36:38;;;;;;;2.77;1.93;;;;;;;;;;5003104;28;20207;-61
2022/04/29 08:39:09;;;;;;;2.03;1.70;;;;;;;;;;5010684;28;20193;-62
2022/04/29 08:41:39;;;;;;;2.17;1.97;;;;;;;;;;5005201;28;20211;-62
2022/04/29 08:44:13;;;;;;;1.80;1.63;;;;;;;;;;5026529;28;20177;-62
2022/04/29 08:46:43;;;;;;;2.80;2.07;;;;;;;;;;5011129;28;20199;-61
2022/04/29 08:49:13;;;;;;;2.37;1.90;;;;;;;;;;5010915;28;20199;-61
2022/04/29 08:51:48;;;;;;;2.73;1.80;;;;;;;;;;4991295;28;20207;-62
2022/04/29 09:00:04;;;;;;;1.83;1.73;;;;;;;;;;5010471;28;20250;-62
2022/04/29 09:02:43;;;;;;;3.83;2.13;;;;;;;;;;5028609;28;20539;-61
2022/04/29 09:05:15;;;;;;;4.67;2.17;;;;;;;;;;5012259;28;20206;-62
2022/04/29 09:07:55;;;;;;;2.30;1.60;;;;;;;;;;5024410;28;20222;-63
2022/04/29 09:10:28;;;;;;;2.50;1.87;;;;;;;;;;4999390;28;20192;-62
2022/04/29 09:13:24;;;;;;;2.87;1.90;;;;;;;;;;5030716;28;20195;-62
2022/04/29 09:16:01;;;;;;;2.73;2.10;;;;;;;;;;5019173;28;20865;-61
2022/04/29 09:18:49;;;;;;;2.83;1.97;;;;;;;;;;5012229;28;20633;-62
2022/04/29 09:21:29;;;;;;;2.80;2.20;;;;;;;;;;5024861;28;20653;-62
2022/04/29 09:24:10;;;;;;;4.73;2.43;;;;;;;;;;5009281;28;20448;-62
2022/04/29 09:27:00;;;;;;;2.90;2.20;;;;;;;;;;5019299;28;20396;-61
2022/04/29 09:29:30;;;;;;;2.43;1.90;;;;;;;;;;5027650;28;20202;-60
2022/04/29 09:32:05;;;;;;;2.87;2.20;;;;;;;;;;5029548;28;20252;-61
2022/04/29 09:34:58;;;;;;;2.17;1.83;;;;;;;;;;5030282;28;20680;-61
2022/04/29 09:39:26;;;;;;;3.13;2.23;;;;;;;;;;5013775;28;20194;-61
2022/04/29 09:40:48;;;;;;;4.10;2.40;;;;;;;;;;5032381;28;20609;-62
2022/04/29 09:43:32;;;;;;;2.60;2.40;;;;;;;;;;5029862;28;20827;-62
2022/04/29 09:46:20;;;;;;;2.70;2.30;;;;;;;;;;5024084;28;20195;-62
2022/04/29 09:48:58;;;;;;;2.57;2.10;;;;;;;;;;5033693;28;20499;-61
2022/04/29 09:51:46;;;;;;;4.23;2.53;;;;;;;;;;5000372;28;20644;-62
2022/04/29 09:54:27;;;;;;;2.27;1.83;;;;;;;;;;5031269;28;20221;-61
2022/04/29 09:57:03;;;;;;;2.63;2.13;;;;;;;;;;5019543;28;20238;-61
2022/04/29 09:59:47;;;;;;;3.07;2.50;;;;;;;;;;5011462;28;20207;-61
2022/04/29 10:02:21;;;;;;;3.87;2.00;;;;;;;;;;5019903;28;20294;-62
2022/04/29 10:04:56;;;;;;;3.10;2.10;;;;;;;;;;5013520;28;20202;-62
2022/04/29 10:07:28;;;;;;;2.37;2.00;;;;;;;;;;5009108;28;20234;-61
2022/04/29 10:10:04;;;;;;;3.13;2.20;;;;;;;;;;5012499;28;20191;-62
2022/04/29 10:12:37;;;;;;;2.87;2.30;;;;;;;;;;5003867;28;20183;-61
2022/04/29 10:15:16;;;;;;;3.50;2.50;;;;;;;;;;5006821;28;20303;-61
2022/04/29 10:23:30;;;;;;;2.80;1.90;;;;;;;;;;5010058;28;20214;-61
2022/04/29 10:25:58;;;;;;;2.97;2.10;;;;;;;;;;5028719;28;20199;-62
2022/04/29 10:28:33;;;;;;;3.97;2.20;;;;;;;;;;5028877;28;20233;-62
2022/04/29 10:31:05;;;;;;;2.93;2.33;;;;;;;;;;5009373;28;20659;-62
2022/04/29 10:33:37;;;;;;;2.53;2.20;;;;;;;;;;5009573;28;20199;-62
2022/04/29 10:36:07;;;;;;;2.40;2.10;;;;;;;;;;5012365;28;20203;-62
2022/04/29 10:38:39;;;;;;;2.83;1.93;;;;;;;;;;5028412;28;20207;-61
2022/04/29 10:41:26;;;;;;;3.73;2.23;;;;;;;;;;5028426;28;20199;-61
2022/04/29 10:43:55;;;;;;;2.53;2.20;;;;;;;;;;5023822;28;20619;-61
2022/04/29 10:46:41;;;;;;;2.73;2.20;;;;;;;;;;5016352;28;20230;-63
2022/04/29 10:49:24;;;;;;;3.07;2.03;;;;;;;;;;5005147;28;20207;-61
2022/04/29 10:51:56;;;;;;;2.40;1.90;;;;;;;;;;5028654;28;20187;-62
2022/04/29 10:54:36;;;;;;;2.67;2.13;;;;;;;;;;5026208;28;20601;-62
2022/04/29 10:57:12;;;;;;;2.77;2.03;;;;;;;;;;5027639;28;20688;-61
2022/04/29 11:00:00;;;;;;;2.50;1.90;;;;;;;;;;5019925;28;20200;-62
2022/04/29 11:02:28;;;;;;;2.37;1.80;;;;;;;;;;5013846;28;20292;-62
2022/04/29 11:04:57;;;;;;;2.33;2.13;;;;;;;;;;5028708;28;20203;-62
2022/04/29 11:07:35;;;;;;;2.60;1.97;;;;;;;;;;5025534;28;20211;-61
2022/04/29 11:10:04;;;;;;;2.73;2.03;;;;;;;;;;5018902;28;20545;-61
2022/04/29 11:12:36;;;;;;;3.03;2.30;;;;;;;;;;5013689;28;20605;-61
2022/04/29 11:15:11;;;;;;;3.00;2.20;;;;;;;;;;5025520;28;20199;-62
2022/04/29 11:17:39;;;;;;;1.80;1.70;;;;;;;;;;5008756;28;20883;-62
2022/04/29 11:20:25;;;;;;;2.33;1.90;;;;;;;;;;5009385;28;20249;-62
2022/04/29 11:25:52;;;;;;;2.10;1.63;;;;;;;;;;5025110;28;20182;-61
2022/04/29 11:28:21;;;;;;;2.40;2.07;;;;;;;;;;5027606;28;20588;-61
2022/04/29 11:30:50;;;;;;;2.10;1.87;;;;;;;;;;5024997;28;20261;-61
2022/04/29 11:33:23;;;;;;;2.33;1.87;;;;;;;;;;5027179;28;20202;-61
2022/04/29 11:36:10;;;;;;;2.83;1.70;;;;;;;;;;5008114;28;20566;-62
2022/04/29 11:38:49;;;;;;;5.40;2.70;;;;;;;;;;5013550;28;20221;-62
2022/04/29 11:41:27;;;;;;;3.43;2.53;;;;;;;;;;5008150;28;20330;-61
2022/04/29 11:44:02;;;;;;;2.77;2.10;;;;;;;;;;5014581;28;20332;-61
2022/04/29 11:46:34;;;;;;;4.07;2.50;;;;;;;;;;5028136;28;20203;-61
2022/04/29 11:49:05;;;;;;;2.90;2.10;;;;;;;;;;5027418;28;20221;-61
2022/04/29 11:51:35;;;;;;;2.30;2.00;;;;;;;;;;5025339;28;20226;-60
2022/04/29 11:54:06;;;;;;;2.70;1.87;;;;;;;;;;5024183;28;20233;-61
2022/04/29 11:56:36;;;;;;;1.80;1.70;;;;;;;;;;5026778;28;20223;-61
2022/04/29 11:59:08;;;;;;;2.20;2.00;;;;;;;;;;4983810;28;20192;-61
2022/04/29 12:01:40;;;;;;;2.57;2.23;;;;;;;;;;5019633;28;20211;-61
2022/04/29 12:04:13;;;;;;;2.57;2.20;;;;;;;;;;5020956;28;20207;-61
2022/04/29 12:06:58;;;;;;;2.83;1.97;;;;;;;;;;4980434;28;20214;-61
2022/04/29 12:09:32;;;;;;;3.03;2.13;;;;;;;;;;5018144;28;20270;-61
2022/04/29 12:12:05;;;;;;;2.00;1.87;;;;;;;;;;5007275;28;20195;-62
2022/04/29 12:14:37;;;;;;;2.70;1.87;;;;;;;;;;5006763;28;20652;-62
2022/04/29 12:17:09;;;;;;;4.20;2.70;;;;;;;;;;5007235;28;20278;-62
2022/04/29 12:19:39;;;;;;;3.00;2.47;;;;;;;;;;5002958;28;20212;-62
2022/04/29 12:22:52;;;;;;;3.80;2.60;;;;;;;;;;4992080;28;20292;-62
2022/04/29 12:25:35;;;;;;;3.53;2.60;;;;;;;;;;5007153;28;20206;-62
2022/04/29 12:28:20;;;;;;;3.17;2.07;;;;;;;;;;5001591;28;20576;-62
2022/04/29 12:37:07;;;;;;;6.40;3.57;;;;;;;;;;4986730;28;20187;-61
2022/04/29 12:39:36;;;;;;;4.37;3.00;;;;;;;;;;5001115;28;20268;-61
2022/04/29 12:42:11;;;;;;;3.53;2.63;;;;;;;;;;5014368;28;20230;-61
2022/04/29 12:47:38;;;;;;;4.27;2.63;;;;;;;;;;5023907;28;20596;-61
2022/04/29 12:50:26;;;;;;;3.23;2.27;;;;;;;;;;5009540;28;20405;-62
2022/04/29 12:53:19;;;;;;;3.33;2.73;;;;;;;;;;5026859;28;20183;-62
2022/04/29 12:55:56;;;;;;;4.63;3.20;;;;;;;;;;5021399;28;20211;-62
2022/04/29 12:58:43;;;;;;;4.53;2.73;;;;;;;;;;4992426;28;20263;-61
2022/04/29 13:01:20;;;;;;;4.97;3.27;;;;;;;;;;4987294;28;20196;-62
2022/04/29 13:03:49;;;;;;;4.40;3.20;;;;;;;;;;4988708;28;20254;-62
2022/04/29 13:06:20;;;;;;;3.77;2.73;;;;;;;;;;4987304;28;20223;-62
2022/04/29 13:08:58;;;;;;;5.60;2.83;;;;;;;;;;5005996;28;20192;-62
2022/04/29 13:11:29;;;;;;;7.03;2.63;;;;;;;;;;4985581;28;20201;-62
2022/04/29 13:13:58;;;;;;;4.13;2.87;;;;;;;;;;4973931;28;20196;-62
2022/04/29 13:16:26;;;;;;;5.10;3.27;;;;;;;;;;4976551;28;20589;-62
2022/04/29 13:19:00;;;;;;;3.70;2.63;;;;;;;;;;4989364;28;20599;-62
2022/04/29 13:21:32;;;;;;;4.80;3.00;;;;;;;;;;5009761;28;20210;-63
2022/04/29 13:24:02;;;;;;;3.07;2.33;;;;;;;;;;5009973;28;20303;-63
2022/04/29 13:26:31;;;;;;;4.10;2.77;;;;;;;;;;5010115;28;20273;-62
2022/04/29 13:29:01;;;;;;;3.33;2.40;;;;;;;;;;5009631;28;20188;-62
2022/04/29 13:31:29;;;;;;;3.83;2.70;;;;;;;;;;4995114;28;20213;-61
2022/04/29 13:33:59;;;;;;;2.90;2.37;;;;;;;;;;4993739;28;20728;-62
2022/04/29 13:36:44;;;;;;;2.93;2.20;;;;;;;;;;5010219;28;20208;-61
2022/04/29 13:39:15;;;;;;;4.97;2.50;;;;;;;;;;5008906;28;20216;-61
2022/04/29 13:41:47;;;;;;;4.07;2.73;;;;;;;;;;5004933;28;20207;-61
2022/04/29 13:44:20;;;;;;;3.30;2.70;;;;;;;;;;5009783;28;20234;-61
2022/04/29 13:46:52;;;;;;;3.73;2.40;;;;;;;;;;5008744;28;20209;-63
2022/04/29 13:49:24;;;;;;;2.97;2.10;;;;;;;;;;5010145;28;20195;-60
2022/04/29 13:51:53;;;;;;;3.50;2.37;;;;;;;;;;5009948;28;20199;-61
2022/04/29 13:54:28;;;;;;;3.00;2.50;;;;;;;;;;5008320;28;20665;-61
2022/04/29 13:57:00;;;;;;;3.27;2.63;;;;;;;;;;5015113;28;20916;-60
2022/04/29 13:59:41;;;;;;;2.97;2.50;;;;;;;;;;5014096;28;20184;-62
2022/04/29 14:02:10;;;;;;;3.30;3.00;;;;;;;;;;4993306;28;20195;-63
2022/04/29 14:04:49;;;;;;;3.60;2.97;;;;;;;;;;5018437;28;20183;-62
2022/04/29 14:07:17;;;;;;;3.47;2.57;;;;;;;;;;5026201;28;20215;-61
2022/04/29 14:09:46;;;;;;;4.20;2.83;;;;;;;;;;5019272;28;20215;-62
2022/04/29 14:12:33;;;;;;;4.03;3.27;;;;;;;;;;5005392;28;20259;-63
2022/04/29 14:15:07;;;;;;;3.17;2.77;;;;;;;;;;5015428;28;20199;-63
2022/04/29 14:17:39;;;;;;;3.60;2.53;;;;;;;;;;5004756;28;20417;-62
2022/04/29 14:20:12;;;;;;;4.70;3.17;;;;;;;;;;5018156;28;20203;-62
2022/04/29 14:22:42;;;;;;;2.87;2.57;;;;;;;;;;5028795;28;20172;-62
2022/04/29 14:25:18;;;;;;;4.33;2.57;;;;;;;;;;5028725;28;20590;-62
2022/04/29 14:27:51;;;;;;;3.60;2.70;;;;;;;;;;4997525;28;20192;-62
2022/04/29 14:30:21;;;;;;;4.93;2.90;;;;;;;;;;4997044;28;20240;-62
2022/04/29 14:32:54;;;;;;;4.17;3.30;;;;;;;;;;5008540;28;20203;-63
2022/04/29 14:35:26;;;;;;;2.97;2.60;;;;;;;;;;5023185;28;20544;-62
2022/04/29 14:37:56;;;;;;;3.63;2.80;;;;;;;;;;5006627;28;20556;-62
2022/04/29 14:40:27;;;;;;;5.03;3.27;;;;;;;;;;5018525;28;20600;-61
2022/04/29 14:42:57;;;;;;;3.97;3.20;;;;;;;;;;5026720;28;20234;-62
2022/04/29 14:45:28;;;;;;;3.30;3.00;;;;;;;;;;5029625;28;20199;-61
2022/04/29 14:48:00;;;;;;;4.30;2.90;;;;;;;;;;5030783;28;20209;-62
2022/04/29 14:50:31;;;;;;;3.50;2.80;;;;;;;;;;5031826;28;20203;-61
2022/04/29 14:53:01;;;;;;;7.33;3.37;;;;;;;;;;5032425;28;20191;-62
2022/04/29 14:55:33;;;;;;;4.70;2.80;;;;;;;;;;5001111;28;20270;-61
2022/04/29 14:58:02;;;;;;;5.40;2.80;;;;;;;;;;5008306;28;20861;-62
2022/04/29 15:00:31;;;;;;;2.50;2.20;;;;;;;;;;5017658;28;20615;-62
2022/04/29 15:02:59;;;;;;;3.30;2.57;;;;;;;;;;5009722;28;20227;-63
2022/04/29 15:05:30;;;;;;;2.90;2.60;;;;;;;;;;5027019;28;20195;-61
2022/04/29 15:08:02;;;;;;;2.93;2.60;;;;;;;;;;5028073;28;20210;-62
2022/04/29 15:16:14;;;;;;;4.90;3.20;;;;;;;;;;5015758;28;20188;-61
2022/04/29 15:18:44;;;;;;;3.83;3.33;;;;;;;;;;5020609;28;20212;-67
2022/04/29 15:21:14;;;;;;;4.70;2.87;;;;;;;;;;5019658;28;20195;-61
2022/04/29 15:23:44;;;;;;;4.90;3.17;;;;;;;;;;5016274;28;20206;-61
2022/04/29 15:26:15;;;;;;;4.10;3.03;;;;;;;;;;5020491;28;20195;-62
2022/04/29 15:28:50;;;;;;;3.93;2.63;;;;;;;;;;4988186;28;20714;-62
2022/04/29 15:31:18;;;;;;;5.13;3.40;;;;;;;;;;5009645;28;20211;-62
2022/04/29 15:33:48;;;;;;;2.77;2.40;;;;;;;;;;5025236;28;20214;-61
2022/04/29 15:36:20;;;;;;;3.50;2.53;;;;;;;;;;5027927;28;20589;-61
2022/04/29 15:38:50;;;;;;;3.40;2.60;;;;;;;;;;5027976;28;20203;-61
2022/04/29 15:41:18;;;;;;;3.37;2.80;;;;;;;;;;5010279;28;20203;-62
2022/04/29 15:43:46;;;;;;;2.87;2.30;;;;;;;;;;5019118;28;20223;-62
2022/04/29 15:46:19;;;;;;;3.20;2.77;;;;;;;;;;5010174;28;20195;-62
2022/04/29 15:48:52;;;;;;;3.40;2.80;;;;;;;;;;5027071;28;20202;-61
2022/04/29 15:51:20;;;;;;;4.07;2.83;;;;;;;;;;5018351;28;20199;-62
2022/04/29 15:53:54;;;;;;;5.33;3.60;;;;;;;;;;5002674;28;20216;-61
2022/04/29 15:56:23;;;;;;;4.67;2.73;;;;;;;;;;5000201;28;20245;-61
2022/04/29 15:58:59;;;;;;;2.60;2.10;;;;;;;;;;5006937;28;20203;-62